sensor_id;sensor_type;location;lat;lon;timestamp;pressure;altitude;pressure_sealevel;temperature;humidity
16821;BME280;8527;49.740;6.604;2023-08-06T00:03:10;98701.53;;;15.33;100.00
16821;BME280;8527;49.740;6.604;2023-08-06T00:08:08;98698.59;;;15.35;100.00
16821;BME280;8527;49.740;6.604;2023-08-06T00:13:06;98690.47;;;15.30;100.00
16821;BME280;8527;49.740;6.604;2023-08-06T00:18:11;98687.31;;;15.33;100.00
16821;BME280;8527;49.740;6.604;2023-08-06T00:23:09;98686.63;;;15.26;100.00
16821;BME280;8527;49.740;6.604;2023-08-06T00:28:08;98684.53;;;15.28;100.00
16821;BME280;8527;49.740;6.604;2023-08-06T00:33:06;98672.22;;;15.27;100.00
16821;BME280;8527;49.740;6.604;2023-08-06T00:38:18;98674.50;;;15.23;100.00
16821;BME280;8527;49.740;6.604;2023-08-06T00:43:17;98663.91;;;15.16;100.00
16821;BME280;8527;49.740;6.604;2023-08-06T00:48:17;98664.09;;;15.33;100.00
16821;BME280;8527;49.740;6.604;2023-08-06T00:53:22;98667.56;;;15.34;100.00
16821;BME280;8527;49.740;6.604;2023-08-06T00:58:36;98669.00;;;15.37;100.00
16821;BME280;8527;49.740;6.604;2023-08-06T01:03:40;98668.78;;;15.38;100.00
16821;BME280;8527;49.740;6.604;2023-08-06T01:08:47;98671.28;;;15.33;100.00
16821;BME280;8527;49.740;6.604;2023-08-06T01:14:02;98663.84;;;15.35;100.00
16821;BME280;8527;49.740;6.604;2023-08-06T01:19:03;98665.94;;;15.33;100.00
16821;BME280;8527;49.740;6.604;2023-08-06T01:24:10;98667.00;;;15.32;100.00
16821;BME280;8527;49.740;6.604;2023-08-06T01:29:15;98662.31;;;15.27;100.00
16821;BME280;8527;49.740;6.604;2023-08-06T01:34:20;98662.41;;;15.21;100.00
16821;BME280;8527;49.740;6.604;2023-08-06T01:39:23;98660.41;;;15.16;100.00
16821;BME280;8527;49.740;6.604;2023-08-06T01:44:22;98663.09;;;15.16;100.00
16821;BME280;8527;49.740;6.604;2023-08-06T01:49:20;98665.47;;;15.24;100.00
16821;BME280;8527;49.740;6.604;2023-08-06T01:54:18;98665.25;;;15.26;100.00
16821;BME280;8527;49.740;6.604;2023-08-06T01:59:21;98654.56;;;15.26;100.00
16821;BME280;8527;49.740;6.604;2023-08-06T02:04:22;98648.47;;;15.18;100.00
16821;BME280;8527;49.740;6.604;2023-08-06T02:09:21;98649.22;;;15.26;100.00
16821;BME280;8527;49.740;6.604;2023-08-06T02:14:23;98647.75;;;15.11;100.00
16821;BME280;8527;49.740;6.604;2023-08-06T02:19:21;98651.22;;;15.12;100.00
16821;BME280;8527;49.740;6.604;2023-08-06T02:24:23;98647.38;;;15.08;100.00
16821;BME280;8527;49.740;6.604;2023-08-06T02:29:24;98647.38;;;15.08;100.00
16821;BME280;8527;49.740;6.604;2023-08-06T02:34:31;98640.34;;;15.13;100.00
16821;BME280;8527;49.740;6.604;2023-08-06T02:39:35;98635.19;;;15.12;100.00
16821;BME280;8527;49.740;6.604;2023-08-06T02:44:42;98622.03;;;14.98;100.00
16821;BME280;8527;49.740;6.604;2023-08-06T02:49:43;98624.56;;;14.93;100.00
16821;BME280;8527;49.740;6.604;2023-08-06T02:54:47;98623.38;;;14.89;100.00
16821;BME280;8527;49.740;6.604;2023-08-06T02:59:52;98626.78;;;14.96;100.00
16821;BME280;8527;49.740;6.604;2023-08-06T03:04:51;98622.94;;;14.92;100.00
16821;BME280;8527;49.740;6.604;2023-08-06T03:09:58;98620.13;;;14.87;100.00
16821;BME280;8527;49.740;6.604;2023-08-06T03:15:06;98612.09;;;14.87;100.00
16821;BME280;8527;49.740;6.604;2023-08-06T03:20:06;98609.81;;;14.90;100.00
16821;BME280;8527;49.740;6.604;2023-08-06T03:25:22;98606.19;;;14.85;100.00
16821;BME280;8527;49.740;6.604;2023-08-06T03:30:32;98615.00;;;14.85;100.00
16821;BME280;8527;49.740;6.604;2023-08-06T03:35:34;98612.19;;;14.80;100.00
16821;BME280;8527;49.740;6.604;2023-08-06T03:40:37;98610.25;;;14.87;100.00
16821;BME280;8527;49.740;6.604;2023-08-06T03:45:38;98600.84;;;14.85;100.00
16821;BME280;8527;49.740;6.604;2023-08-06T03:50:46;98601.28;;;14.82;100.00
16821;BME280;8527;49.740;6.604;2023-08-06T03:55:50;98607.81;;;14.86;100.00
16821;BME280;8527;49.740;6.604;2023-08-06T04:01:00;98602.47;;;14.86;100.00
16821;BME280;8527;49.740;6.604;2023-08-06T04:06:02;98606.19;;;14.85;100.00
16821;BME280;8527;49.740;6.604;2023-08-06T04:11:07;98603.72;;;14.83;100.00
16821;BME280;8527;49.740;6.604;2023-08-06T04:16:08;98603.22;;;14.74;100.00
16821;BME280;8527;49.740;6.604;2023-08-06T04:21:10;98606.47;;;14.76;100.00
16821;BME280;8527;49.740;6.604;2023-08-06T04:26:09;98614.13;;;14.73;100.00
16821;BME280;8527;49.740;6.604;2023-08-06T04:31:12;98612.41;;;14.79;100.00
16821;BME280;8527;49.740;6.604;2023-08-06T04:36:11;98624.50;;;14.81;100.00
16821;BME280;8527;49.740;6.604;2023-08-06T04:41:12;98616.28;;;14.83;100.00
16821;BME280;8527;49.740;6.604;2023-08-06T04:46:13;98610.56;;;14.79;100.00
16821;BME280;8527;49.740;6.604;2023-08-06T04:51:15;98610.59;;;14.91;100.00
16821;BME280;8527;49.740;6.604;2023-08-06T04:56:16;98618.78;;;14.96;100.00
16821;BME280;8527;49.740;6.604;2023-08-06T05:01:21;98626.09;;;15.01;100.00
16821;BME280;8527;49.740;6.604;2023-08-06T05:06:25;98636.78;;;15.01;100.00
16821;BME280;8527;49.740;6.604;2023-08-06T05:11:26;98640.88;;;14.85;100.00
16821;BME280;8527;49.740;6.604;2023-08-06T05:16:27;98639.56;;;14.94;100.00
16821;BME280;8527;49.740;6.604;2023-08-06T05:21:25;98642.50;;;15.04;100.00
16821;BME280;8527;49.740;6.604;2023-08-06T05:26:27;98642.41;;;15.11;100.00
16821;BME280;8527;49.740;6.604;2023-08-06T05:31:28;98654.06;;;15.17;100.00
16821;BME280;8527;49.740;6.604;2023-08-06T05:36:26;98660.31;;;15.23;100.00
16821;BME280;8527;49.740;6.604;2023-08-06T05:41:25;98666.31;;;15.37;100.00
16821;BME280;8527;49.740;6.604;2023-08-06T05:46:25;98665.84;;;15.40;100.00
16821;BME280;8527;49.740;6.604;2023-08-06T05:51:37;98666.72;;;15.52;100.00
16821;BME280;8527;49.740;6.604;2023-08-06T05:56:38;98662.03;;;15.47;100.00
16821;BME280;8527;49.740;6.604;2023-08-06T06:01:36;98658.19;;;15.43;100.00
16821;BME280;8527;49.740;6.604;2023-08-06T06:06:43;98665.31;;;15.50;100.00
16821;BME280;8527;49.740;6.604;2023-08-06T06:11:48;98657.41;;;15.43;100.00
16821;BME280;8527;49.740;6.604;2023-08-06T06:16:48;98649.06;;;15.21;100.00
16821;BME280;8527;49.740;6.604;2023-08-06T06:21:49;98662.91;;;15.29;100.00
16821;BME280;8527;49.740;6.604;2023-08-06T06:26:48;98670.50;;;15.32;100.00
16821;BME280;8527;49.740;6.604;2023-08-06T06:31:52;98678.06;;;15.36;100.00
16821;BME280;8527;49.740;6.604;2023-08-06T06:36:53;98692.59;;;15.40;100.00
16821;BME280;8527;49.740;6.604;2023-08-06T06:41:51;98689.59;;;15.48;100.00
16821;BME280;8527;49.740;6.604;2023-08-06T06:46:50;98684.94;;;15.43;100.00
16821;BME280;8527;49.740;6.604;2023-08-06T06:51:48;98675.50;;;15.41;100.00
16821;BME280;8527;49.740;6.604;2023-08-06T06:56:49;98672.25;;;15.39;100.00
16821;BME280;8527;49.740;6.604;2023-08-06T07:01:50;98684.44;;;15.35;100.00
16821;BME280;8527;49.740;6.604;2023-08-06T07:06:51;98680.72;;;15.36;100.00
16821;BME280;8527;49.740;6.604;2023-08-06T07:11:55;98692.19;;;15.24;100.00
16821;BME280;8527;49.740;6.604;2023-08-06T07:16:56;98697.38;;;15.19;100.00
16821;BME280;8527;49.740;6.604;2023-08-06T07:22:00;98715.75;;;15.27;100.00
16821;BME280;8527;49.740;6.604;2023-08-06T07:27:01;98716.59;;;15.28;100.00
16821;BME280;8527;49.740;6.604;2023-08-06T07:32:03;98727.28;;;15.28;100.00
16821;BME280;8527;49.740;6.604;2023-08-06T07:37:04;98735.50;;;15.26;100.00
16821;BME280;8527;49.740;6.604;2023-08-06T07:42:06;98752.97;;;15.10;100.00
16821;BME280;8527;49.740;6.604;2023-08-06T07:47:05;98767.91;;;15.18;100.00
16821;BME280;8527;49.740;6.604;2023-08-06T07:52:07;98793.28;;;15.09;100.00
16821;BME280;8527;49.740;6.604;2023-08-06T07:57:10;98792.38;;;15.15;100.00
16821;BME280;8527;49.740;6.604;2023-08-06T08:02:10;98798.03;;;15.07;100.00
16821;BME280;8527;49.740;6.604;2023-08-06T08:07:09;98815.56;;;14.96;100.00
16821;BME280;8527;49.740;6.604;2023-08-06T08:12:11;98817.06;;;15.10;100.00
16821;BME280;8527;49.740;6.604;2023-08-06T08:17:10;98821.31;;;14.99;100.00
16821;BME280;8527;49.740;6.604;2023-08-06T08:22:08;98834.66;;;14.99;100.00
16821;BME280;8527;49.740;6.604;2023-08-06T08:27:07;98832.56;;;15.01;100.00
16821;BME280;8527;49.740;6.604;2023-08-06T08:32:08;98844.31;;;15.00;100.00
16821;BME280;8527;49.740;6.604;2023-08-06T08:37:09;98851.88;;;15.03;100.00
16821;BME280;8527;49.740;6.604;2023-08-06T08:42:08;98864.50;;;15.15;100.00
16821;BME280;8527;49.740;6.604;2023-08-06T08:47:11;98860.06;;;15.09;100.00
16821;BME280;8527;49.740;6.604;2023-08-06T08:52:11;98871.47;;;15.16;100.00
16821;BME280;8527;49.740;6.604;2023-08-06T08:57:13;98891.16;;;15.22;100.00
16821;BME280;8527;49.740;6.604;2023-08-06T09:02:18;98886.84;;;15.21;100.00
16821;BME280;8527;49.740;6.604;2023-08-06T09:07:19;98911.41;;;15.11;100.00
16821;BME280;8527;49.740;6.604;2023-08-06T09:12:20;98907.97;;;15.03;100.00
16821;BME280;8527;49.740;6.604;2023-08-06T09:17:22;98905.09;;;15.05;100.00
16821;BME280;8527;49.740;6.604;2023-08-06T09:22:20;98923.06;;;15.16;100.00
16821;BME280;8527;49.740;6.604;2023-08-06T09:27:18;98928.59;;;15.40;100.00
16821;BME280;8527;49.740;6.604;2023-08-06T09:32:17;98945.94;;;15.56;96.79
16821;BME280;8527;49.740;6.604;2023-08-06T09:37:17;98960.03;;;15.64;95.97
16821;BME280;8527;49.740;6.604;2023-08-06T09:42:16;98970.69;;;15.89;96.82
16821;BME280;8527;49.740;6.604;2023-08-06T09:47:16;98976.88;;;15.89;94.25
16821;BME280;8527;49.740;6.604;2023-08-06T09:52:21;98976.38;;;15.99;94.73
16821;BME280;8527;49.740;6.604;2023-08-06T09:57:21;98987.72;;;16.13;92.19
16821;BME280;8527;49.740;6.604;2023-08-06T10:02:23;98993.78;;;16.39;93.83
16821;BME280;8527;49.740;6.604;2023-08-06T10:07:25;99001.69;;;16.34;92.17
16821;BME280;8527;49.740;6.604;2023-08-06T10:12:24;99010.13;;;16.50;93.69
16821;BME280;8527;49.740;6.604;2023-08-06T10:17:26;99007.34;;;16.44;94.00
16821;BME280;8527;49.740;6.604;2023-08-06T10:22:27;99027.63;;;16.34;91.76
16821;BME280;8527;49.740;6.604;2023-08-06T10:27:29;99026.50;;;16.41;93.99
16821;BME280;8527;49.740;6.604;2023-08-06T10:32:46;99034.91;;;16.45;94.09
16821;BME280;8527;49.740;6.604;2023-08-06T10:37:47;99047.94;;;16.72;94.88
16821;BME280;8527;49.740;6.604;2023-08-06T10:42:46;99053.47;;;16.77;91.85
16821;BME280;8527;49.740;6.604;2023-08-06T10:47:45;99054.44;;;16.95;93.43
16821;BME280;8527;49.740;6.604;2023-08-06T10:52:43;99046.56;;;17.42;92.96
16821;BME280;8527;49.740;6.604;2023-08-06T10:57:44;99048.78;;;17.69;92.35
16821;BME280;8527;49.740;6.604;2023-08-06T11:02:43;99044.81;;;18.08;92.77
16821;BME280;8527;49.740;6.604;2023-08-06T11:07:44;99060.91;;;18.20;89.67
16821;BME280;8527;49.740;6.604;2023-08-06T11:12:46;99068.72;;;17.07;93.47
16821;BME280;8527;49.740;6.604;2023-08-06T11:17:45;99068.53;;;16.90;94.44
16821;BME280;8527;49.740;6.604;2023-08-06T11:22:43;99075.50;;;17.64;94.82
16821;BME280;8527;49.740;6.604;2023-08-06T11:27:42;99076.97;;;18.55;96.03
16821;BME280;8527;49.740;6.604;2023-08-06T11:32:47;99071.94;;;18.88;92.00
16821;BME280;8527;49.740;6.604;2023-08-06T11:37:46;99078.03;;;18.42;86.10
16821;BME280;8527;49.740;6.604;2023-08-06T11:42:46;99089.38;;;18.33;87.48
16821;BME280;8527;49.740;6.604;2023-08-06T11:47:52;99100.25;;;18.79;84.63
16821;BME280;8527;49.740;6.604;2023-08-06T11:52:53;99078.41;;;19.50;78.44
16821;BME280;8527;49.740;6.604;2023-08-06T11:57:53;99071.72;;;19.36;76.83
16821;BME280;8527;49.740;6.604;2023-08-06T12:02:53;99094.00;;;18.90;78.41
16821;BME280;8527;49.740;6.604;2023-08-06T12:07:56;99112.19;;;18.71;78.27
16821;BME280;8527;49.740;6.604;2023-08-06T12:12:55;99095.88;;;19.02;75.98
16821;BME280;8527;49.740;6.604;2023-08-06T12:17:56;99105.47;;;19.78;72.06
16821;BME280;8527;49.740;6.604;2023-08-06T12:22:54;99097.91;;;19.40;73.64
16821;BME280;8527;49.740;6.604;2023-08-06T12:27:56;99114.25;;;19.22;72.45
16821;BME280;8527;49.740;6.604;2023-08-06T12:32:56;99123.13;;;19.22;73.30
16821;BME280;8527;49.740;6.604;2023-08-06T12:37:55;99108.97;;;19.44;73.02
16821;BME280;8527;49.740;6.604;2023-08-06T12:42:57;99130.50;;;18.86;71.79
16821;BME280;8527;49.740;6.604;2023-08-06T12:47:58;99164.69;;;18.38;73.98
16821;BME280;8527;49.740;6.604;2023-08-06T12:52:56;99147.50;;;18.39;75.76
16821;BME280;8527;49.740;6.604;2023-08-06T12:57:55;99159.41;;;18.67;75.03
16821;BME280;8527;49.740;6.604;2023-08-06T13:02:54;99164.53;;;18.68;74.67
16821;BME280;8527;49.740;6.604;2023-08-06T13:07:55;99172.28;;;18.41;76.08
16821;BME280;8527;49.740;6.604;2023-08-06T13:12:53;99168.56;;;18.42;76.54
16821;BME280;8527;49.740;6.604;2023-08-06T13:17:51;99190.38;;;18.22;79.67
16821;BME280;8527;49.740;6.604;2023-08-06T13:22:50;99203.50;;;17.88;83.89
16821;BME280;8527;49.740;6.604;2023-08-06T13:27:54;99214.34;;;17.50;84.46
16821;BME280;8527;49.740;6.604;2023-08-06T13:32:52;99198.91;;;17.76;85.71
16821;BME280;8527;49.740;6.604;2023-08-06T13:37:52;99205.44;;;17.80;84.05
16821;BME280;8527;49.740;6.604;2023-08-06T13:42:50;99213.69;;;17.67;84.70
16821;BME280;8527;49.740;6.604;2023-08-06T13:47:51;99218.72;;;16.95;88.98
16821;BME280;8527;49.740;6.604;2023-08-06T13:52:49;99221.72;;;17.06;91.25
16821;BME280;8527;49.740;6.604;2023-08-06T13:57:50;99220.41;;;16.71;89.54
16821;BME280;8527;49.740;6.604;2023-08-06T14:02:51;99237.56;;;17.07;88.34
16821;BME280;8527;49.740;6.604;2023-08-06T14:07:49;99241.63;;;16.91;90.03
16821;BME280;8527;49.740;6.604;2023-08-06T14:12:48;99251.75;;;16.89;86.71
16821;BME280;8527;49.740;6.604;2023-08-06T14:17:46;99249.19;;;17.20;86.16
16821;BME280;8527;49.740;6.604;2023-08-06T14:22:47;99249.56;;;17.23;87.45
16821;BME280;8527;49.740;6.604;2023-08-06T14:27:45;99260.56;;;17.15;86.84
16821;BME280;8527;49.740;6.604;2023-08-06T14:32:46;99259.97;;;17.32;85.63
16821;BME280;8527;49.740;6.604;2023-08-06T14:37:47;99266.03;;;17.27;85.18
16821;BME280;8527;49.740;6.604;2023-08-06T14:42:46;99274.69;;;16.85;86.66
16821;BME280;8527;49.740;6.604;2023-08-06T14:47:46;99271.47;;;16.76;86.67
16821;BME280;8527;49.740;6.604;2023-08-06T14:52:47;99286.66;;;16.82;86.37
16821;BME280;8527;49.740;6.604;2023-08-06T14:57:49;99280.00;;;17.10;80.38
16821;BME280;8527;49.740;6.604;2023-08-06T15:02:47;99312.50;;;17.39;81.69
16821;BME280;8527;49.740;6.604;2023-08-06T15:07:51;99308.22;;;17.32;79.89
16821;BME280;8527;49.740;6.604;2023-08-06T15:12:50;99304.50;;;17.14;82.54
16821;BME280;8527;49.740;6.604;2023-08-06T15:17:57;99329.00;;;16.92;83.82
16821;BME280;8527;49.740;6.604;2023-08-06T15:23:01;99325.66;;;16.78;81.26
16821;BME280;8527;49.740;6.604;2023-08-06T15:27:59;99343.56;;;16.78;79.95
16821;BME280;8527;49.740;6.604;2023-08-06T15:32:57;99341.94;;;16.77;78.80
16821;BME280;8527;49.740;6.604;2023-08-06T15:37:58;99356.50;;;16.87;81.17
16821;BME280;8527;49.740;6.604;2023-08-06T15:42:57;99365.41;;;16.81;82.10
16821;BME280;8527;49.740;6.604;2023-08-06T15:47:55;99377.19;;;16.99;85.45
16821;BME280;8527;49.740;6.604;2023-08-06T15:52:53;99383.41;;;16.67;84.51
16821;BME280;8527;49.740;6.604;2023-08-06T15:57:54;99391.69;;;16.66;83.42
16821;BME280;8527;49.740;6.604;2023-08-06T16:02:52;99381.13;;;16.71;82.78
16821;BME280;8527;49.740;6.604;2023-08-06T16:07:51;99391.91;;;16.64;80.22
16821;BME280;8527;49.740;6.604;2023-08-06T16:12:50;99393.19;;;16.55;80.83
16821;BME280;8527;49.740;6.604;2023-08-06T16:17:51;99390.06;;;16.65;79.99
16821;BME280;8527;49.740;6.604;2023-08-06T16:22:49;99390.66;;;16.35;81.42
16821;BME280;8527;49.740;6.604;2023-08-06T16:27:47;99404.47;;;16.31;82.42
16821;BME280;8527;49.740;6.604;2023-08-06T16:32:46;99419.72;;;16.31;82.18
16821;BME280;8527;49.740;6.604;2023-08-06T16:37:48;99431.66;;;16.35;83.40
16821;BME280;8527;49.740;6.604;2023-08-06T16:42:46;99437.41;;;16.39;82.22
16821;BME280;8527;49.740;6.604;2023-08-06T16:47:47;99428.44;;;16.20;81.89
16821;BME280;8527;49.740;6.604;2023-08-06T16:52:48;99446.81;;;16.02;81.86
16821;BME280;8527;49.740;6.604;2023-08-06T16:57:47;99458.75;;;16.00;83.44
16821;BME280;8527;49.740;6.604;2023-08-06T17:02:45;99470.09;;;15.88;85.09
16821;BME280;8527;49.740;6.604;2023-08-06T17:07:49;99473.84;;;15.74;85.98
16821;BME280;8527;49.740;6.604;2023-08-06T17:12:48;99487.41;;;15.66;88.07
16821;BME280;8527;49.740;6.604;2023-08-06T17:17:48;99489.31;;;15.45;90.08
16821;BME280;8527;49.740;6.604;2023-08-06T17:22:49;99495.47;;;15.52;92.78
16821;BME280;8527;49.740;6.604;2023-08-06T17:27:48;99506.16;;;15.32;91.24
16821;BME280;8527;49.740;6.604;2023-08-06T17:32:50;99494.03;;;15.23;94.45
16821;BME280;8527;49.740;6.604;2023-08-06T17:37:51;99496.31;;;14.92;93.56
16821;BME280;8527;49.740;6.604;2023-08-06T17:42:52;99497.72;;;14.88;95.96
16821;BME280;8527;49.740;6.604;2023-08-06T17:47:51;99500.59;;;14.80;92.12
16821;BME280;8527;49.740;6.604;2023-08-06T17:52:52;99505.63;;;14.61;93.20
16821;BME280;8527;49.740;6.604;2023-08-06T17:57:50;99508.28;;;14.54;93.26
16821;BME280;8527;49.740;6.604;2023-08-06T18:02:49;99518.53;;;14.44;94.01
16821;BME280;8527;49.740;6.604;2023-08-06T18:07:47;99514.00;;;14.38;95.37
16821;BME280;8527;49.740;6.604;2023-08-06T18:12:48;99518.09;;;14.47;94.11
16821;BME280;8527;49.740;6.604;2023-08-06T18:17:47;99520.66;;;14.13;95.78
16821;BME280;8527;49.740;6.604;2023-08-06T18:22:45;99522.53;;;14.19;95.29
16821;BME280;8527;49.740;6.604;2023-08-06T18:27:43;99532.19;;;14.20;95.18
16821;BME280;8527;49.740;6.604;2023-08-06T18:32:45;99527.22;;;14.11;94.93
16821;BME280;8527;49.740;6.604;2023-08-06T18:37:46;99524.13;;;14.07;95.61
16821;BME280;8527;49.740;6.604;2023-08-06T18:42:46;99530.06;;;14.09;95.95
16821;BME280;8527;49.740;6.604;2023-08-06T18:47:47;99534.22;;;14.18;96.29
16821;BME280;8527;49.740;6.604;2023-08-06T18:52:46;99543.41;;;14.09;95.39
16821;BME280;8527;49.740;6.604;2023-08-06T18:57:45;99545.41;;;14.00;96.93
16821;BME280;8527;49.740;6.604;2023-08-06T19:02:43;99544.19;;;14.03;96.85
16821;BME280;8527;49.740;6.604;2023-08-06T19:07:44;99548.03;;;13.93;96.73
16821;BME280;8527;49.740;6.604;2023-08-06T19:12:43;99556.47;;;13.97;97.61
16821;BME280;8527;49.740;6.604;2023-08-06T19:17:41;99562.53;;;13.84;96.64
16821;BME280;8527;49.740;6.604;2023-08-06T19:22:39;99567.81;;;13.77;97.79
16821;BME280;8527;49.740;6.604;2023-08-06T19:27:40;99576.44;;;13.79;97.26
16821;BME280;8527;49.740;6.604;2023-08-06T19:32:39;99581.34;;;13.76;97.31
16821;BME280;8527;49.740;6.604;2023-08-06T19:37:37;99591.19;;;13.75;98.65
16821;BME280;8527;49.740;6.604;2023-08-06T19:42:36;99590.13;;;13.70;98.01
16821;BME280;8527;49.740;6.604;2023-08-06T19:47:37;99597.56;;;13.74;97.50
16821;BME280;8527;49.740;6.604;2023-08-06T19:52:35;99603.69;;;13.75;97.75
16821;BME280;8527;49.740;6.604;2023-08-06T19:57:34;99595.50;;;13.76;97.72
16821;BME280;8527;49.740;6.604;2023-08-06T20:02:38;99611.47;;;13.70;96.03
16821;BME280;8527;49.740;6.604;2023-08-06T20:07:36;99609.81;;;13.69;94.80
16821;BME280;8527;49.740;6.604;2023-08-06T20:12:35;99615.66;;;13.57;95.20
16821;BME280;8527;49.740;6.604;2023-08-06T20:17:33;99611.00;;;13.66;95.99
16821;BME280;8527;49.740;6.604;2023-08-06T20:22:34;99624.03;;;13.54;95.38
16821;BME280;8527;49.740;6.604;2023-08-06T20:27:33;99614.97;;;13.48;94.68
16821;BME280;8527;49.740;6.604;2023-08-06T20:32:31;99619.41;;;13.63;94.58
16821;BME280;8527;49.740;6.604;2023-08-06T20:37:29;99621.50;;;13.46;94.57
16821;BME280;8527;49.740;6.604;2023-08-06T20:42:33;99620.50;;;13.32;94.04
16821;BME280;8527;49.740;6.604;2023-08-06T20:47:32;99628.13;;;13.35;94.26
16821;BME280;8527;49.740;6.604;2023-08-06T20:52:31;99640.72;;;13.26;95.14
16821;BME280;8527;49.740;6.604;2023-08-06T20:57:29;99650.00;;;13.30;96.36
16821;BME280;8527;49.740;6.604;2023-08-06T21:02:30;99649.75;;;13.25;95.23
16821;BME280;8527;49.740;6.604;2023-08-06T21:07:29;99653.06;;;13.27;95.65
16821;BME280;8527;49.740;6.604;2023-08-06T21:12:27;99652.53;;;13.17;95.59
16821;BME280;8527;49.740;6.604;2023-08-06T21:17:25;99665.00;;;13.16;95.72
16821;BME280;8527;49.740;6.604;2023-08-06T21:22:27;99672.84;;;13.18;96.15
16821;BME280;8527;49.740;6.604;2023-08-06T21:27:25;99669.78;;;13.21;95.84
16821;BME280;8527;49.740;6.604;2023-08-06T21:32:23;99675.50;;;13.18;95.85
16821;BME280;8527;49.740;6.604;2023-08-06T21:37:22;99682.56;;;13.11;96.08
16821;BME280;8527;49.740;6.604;2023-08-06T21:42:23;99673.09;;;13.08;95.49
16821;BME280;8527;49.740;6.604;2023-08-06T21:47:21;99685.38;;;13.02;96.52
16821;BME280;8527;49.740;6.604;2023-08-06T21:52:20;99684.44;;;12.95;97.40
16821;BME280;8527;49.740;6.604;2023-08-06T21:57:18;99685.38;;;13.02;97.03
16821;BME280;8527;49.740;6.604;2023-08-06T22:02:19;99683.53;;;12.88;96.78
16821;BME280;8527;49.740;6.604;2023-08-06T22:07:17;99687.09;;;12.80;97.20
16821;BME280;8527;49.740;6.604;2023-08-06T22:12:16;99680.03;;;12.87;97.63
16821;BME280;8527;49.740;6.604;2023-08-06T22:17:14;99688.31;;;12.77;97.28
16821;BME280;8527;49.740;6.604;2023-08-06T22:22:15;99683.44;;;12.81;97.12
16821;BME280;8527;49.740;6.604;2023-08-06T22:27:15;99693.19;;;12.74;96.85
16821;BME280;8527;49.740;6.604;2023-08-06T22:32:13;99700.63;;;12.78;96.60
16821;BME280;8527;49.740;6.604;2023-08-06T22:37:11;99698.69;;;12.87;96.50
16821;BME280;8527;49.740;6.604;2023-08-06T22:42:13;99693.28;;;12.80;96.72
16821;BME280;8527;49.740;6.604;2023-08-06T22:47:11;99701.91;;;12.83;96.20
16821;BME280;8527;49.740;6.604;2023-08-06T22:52:12;99701.16;;;12.74;96.10
16821;BME280;8527;49.740;6.604;2023-08-06T22:57:13;99711.63;;;12.75;96.07
16821;BME280;8527;49.740;6.604;2023-08-06T23:02:11;99704.56;;;12.68;96.91
16821;BME280;8527;49.740;6.604;2023-08-06T23:07:10;99706.31;;;12.60;96.39
16821;BME280;8527;49.740;6.604;2023-08-06T23:12:09;99703.63;;;12.75;97.01
16821;BME280;8527;49.740;6.604;2023-08-06T23:17:10;99713.09;;;12.78;96.42
16821;BME280;8527;49.740;6.604;2023-08-06T23:22:08;99714.28;;;12.60;97.17
16821;BME280;8527;49.740;6.604;2023-08-06T23:27:09;99713.56;;;12.66;97.31
16821;BME280;8527;49.740;6.604;2023-08-06T23:32:10;99715.66;;;12.71;96.93
16821;BME280;8527;49.740;6.604;2023-08-06T23:37:09;99719.16;;;12.72;96.79
16821;BME280;8527;49.740;6.604;2023-08-06T23:42:07;99717.88;;;12.68;97.45
16821;BME280;8527;49.740;6.604;2023-08-06T23:47:10;99717.41;;;12.64;97.36
16821;BME280;8527;49.740;6.604;2023-08-06T23:52:09;99716.41;;;12.50;97.87
16821;BME280;8527;49.740;6.604;2023-08-06T23:57:07;99723.94;;;12.61;97.75
